Terminal Aerodrome Forecast
Issued by NWS

Home | Current Version | Previous Version | Text Only | Print | Product List | Glossary Off
Versions: 1 2 3 4 5 6 7 8 9 10 11 12 13 14 15 16 17 18 19 20

000
FTUS43 KGRB 302300
TAFAUW
TAF
KAUW 302330Z 3100/3124 16004KT P6SM -RA BKN050 OVC070
     FM310200 08005KT 6SM -RA BR SCT010 OVC017
      TEMPO 3102/3104 4SM -RA BKN010
     FM310400 04004KT P6SM SCT008 BKN015
     FM311600 29008KT P6SM BKN025
     FM311900 30008KT P6SM SCT040=

USA.gov is the U.S. government's official web portal to all federal, state and local government web resources and services.